Interlachen, Florida
Current Conditions -  °F | °C
As of 2:55 AM on Monday 24 Nov 2014 (Local Time) from K28J Reporting Station
Overcast Overcast  
Wind Chill: 73°   Ceiling: 700
Heat Index: 73°   Visibility: 10mi
Dew Point: 73°   Wind: 9mph
Humidity: 100%   Direction: 220°SW
Pressure: 29.9"   Gusts: NA
Location:  29.62°N, 81.9°W
Report Text: K28J 240755Z AUTO 22008KT 10SM OVC007 23/23 A2990 RMK AO2
Loading
Personal Weather Stations






























Interactive Weather Map New forecast layout! Learn more

10-Day Weather Forecast

Advertisements
Track Severe Weather on mobile